createdAt,value
2019-03-13T00:01:15.029Z,92.15
2019-03-13T00:04:19.007Z,91.79
2019-03-13T00:07:22.931Z,92.19
2019-03-13T00:10:26.814Z,91.74
2019-03-13T00:13:30.662Z,92.11
2019-03-13T00:16:34.579Z,92.20
2019-03-13T00:19:38.425Z,91.63
2019-03-13T00:22:42.207Z,91.94
2019-03-13T00:25:46.205Z,91.76
2019-03-13T00:28:50.002Z,91.48
2019-03-13T00:31:53.840Z,91.19
2019-03-13T00:34:57.721Z,91.38
2019-03-13T00:38:01.592Z,90.57
2019-03-13T00:41:05.482Z,90.93
2019-03-13T00:44:09.307Z,90.40
2019-03-13T00:47:13.181Z,90.87
2019-03-13T00:50:28.509Z,90.35
2019-03-13T00:53:32.372Z,90.65
2019-03-13T00:56:36.262Z,90.39
2019-03-13T00:59:40.137Z,90.75
2019-03-13T01:02:45.464Z,90.60
2019-03-13T01:05:55.799Z,91.38
2019-03-13T01:08:59.606Z,91.77
2019-03-13T01:12:04.265Z,92.19
2019-03-13T01:15:08.303Z,92.95
2019-03-13T01:18:12.143Z,92.61
2019-03-13T01:21:16.072Z,93.20
2019-03-13T01:24:19.889Z,93.79
2019-03-13T01:27:23.713Z,93.58
2019-03-13T01:30:29.167Z,94.01
2019-03-13T01:33:32.951Z,93.36
2019-03-13T01:36:36.739Z,93.01
2019-03-13T01:39:40.533Z,92.81
2019-03-13T01:42:44.491Z,92.09
2019-03-13T01:45:48.290Z,91.40
2019-03-13T01:48:52.108Z,91.34
2019-03-13T01:51:55.983Z,91.07
2019-03-13T01:54:59.886Z,90.67
2019-03-13T01:58:03.777Z,90.30
2019-03-13T02:01:07.931Z,90.03
2019-03-13T02:04:11.868Z,90.08
2019-03-13T02:07:15.776Z,89.96
2019-03-13T02:10:19.565Z,89.35
2019-03-13T02:13:23.366Z,89.23
2019-03-13T02:16:27.201Z,89.04
2019-03-13T02:19:31.015Z,88.28
2019-03-13T02:22:34.864Z,88.97
2019-03-13T02:25:38.691Z,88.96
2019-03-13T02:28:42.528Z,89.32
2019-03-13T02:31:46.348Z,89.43
2019-03-13T02:34:50.225Z,88.19
2019-03-13T02:37:54.033Z,86.99
2019-03-13T02:40:57.840Z,87.19
2019-03-13T02:44:01.676Z,87.34
2019-03-13T02:47:05.513Z,87.62
2019-03-13T02:50:10.898Z,88.21
2019-03-13T02:53:14.706Z,87.01
2019-03-13T02:56:18.570Z,87.16
2019-03-13T02:59:22.364Z,86.97
2019-03-13T03:02:33.993Z,88.23
2019-03-13T03:05:37.823Z,89.25
2019-03-13T03:08:41.618Z,89.87
2019-03-13T03:11:45.466Z,89.35
2019-03-13T03:15:04.487Z,88.94
2019-03-13T03:18:08.346Z,89.15
2019-03-13T03:21:12.126Z,90.49
2019-03-13T03:24:15.958Z,91.79
2019-03-13T03:27:19.764Z,91.12
2019-03-13T03:30:23.910Z,91.46
2019-03-13T03:33:27.676Z,91.60
2019-03-13T03:36:31.836Z,92.37
2019-03-13T03:39:35.634Z,92.17
2019-03-13T03:42:39.589Z,93.25
2019-03-13T03:45:43.473Z,93.20
2019-03-13T03:48:47.318Z,92.88
2019-03-13T03:51:51.302Z,92.84
2019-03-13T03:54:55.112Z,93.52
2019-03-13T03:57:59.063Z,93.56
2019-03-13T04:01:03.011Z,94.25
2019-03-13T04:04:06.806Z,94.46
2019-03-13T04:07:10.623Z,94.28
2019-03-13T04:10:14.622Z,94.01
2019-03-13T04:13:18.408Z,94.29
2019-03-13T04:16:22.298Z,94.14
2019-03-13T04:19:26.097Z,94.12
2019-03-13T04:22:29.920Z,93.62
2019-03-13T04:25:37.855Z,92.84
2019-03-13T04:28:41.769Z,92.09
2019-03-13T04:31:45.565Z,92.36
2019-03-13T04:34:49.380Z,92.42
2019-03-13T04:37:53.232Z,93.10
2019-03-13T04:40:57.033Z,91.69
2019-03-13T04:44:00.878Z,91.87
2019-03-13T04:47:04.765Z,92.15
2019-03-13T04:50:08.654Z,92.02
2019-03-13T04:53:12.454Z,92.71
2019-03-13T04:56:16.255Z,92.36
2019-03-13T04:59:20.055Z,93.00
2019-03-13T05:02:23.881Z,92.47
2019-03-13T05:05:47.884Z,92.18
2019-03-13T05:09:18.432Z,91.95
2019-03-13T05:12:22.303Z,92.47
2019-03-13T05:15:26.121Z,92.19
2019-03-13T05:18:29.942Z,93.05
2019-03-13T05:21:33.798Z,93.18
2019-03-13T05:24:37.596Z,93.46
2019-03-13T05:27:41.502Z,93.52
2019-03-13T05:30:45.417Z,93.29
2019-03-13T05:33:49.445Z,94.02
2019-03-13T05:36:53.245Z,94.83
2019-03-13T05:39:57.089Z,94.82
2019-03-13T05:43:00.880Z,94.48
2019-03-13T05:46:04.752Z,94.27
2019-03-13T05:49:08.581Z,94.47
2019-03-13T05:52:12.395Z,94.31
2019-03-13T05:55:16.342Z,94.62
2019-03-13T05:58:20.157Z,94.46
2019-03-13T06:01:23.980Z,94.94
2019-03-13T06:04:27.790Z,95.00
2019-03-13T06:07:31.609Z,94.77
2019-03-13T06:10:35.560Z,94.30
2019-03-13T06:13:39.357Z,94.33
2019-03-13T06:16:43.157Z,94.81
2019-03-13T06:19:46.991Z,94.41
2019-03-13T06:22:50.808Z,94.56
2019-03-13T06:25:54.624Z,94.76
2019-03-13T06:28:58.446Z,94.68
2019-03-13T06:32:02.318Z,94.29
2019-03-13T06:35:06.325Z,94.12
2019-03-13T06:38:10.131Z,94.66
2019-03-13T06:41:14.042Z,94.80
2019-03-13T06:44:17.845Z,94.35
2019-03-13T06:47:24.855Z,94.59
2019-03-13T06:50:27.219Z,94.67
2019-03-13T06:53:31.068Z,95.05
2019-03-13T06:56:34.926Z,95.09
2019-03-13T06:59:56.401Z,94.84
2019-03-13T07:03:05.854Z,94.33
2019-03-13T07:06:37.688Z,94.25
2019-03-13T07:09:48.638Z,93.82
2019-03-13T07:13:04.737Z,93.84
2019-03-13T07:16:17.762Z,93.95
2019-03-13T07:19:35.594Z,93.84
2019-03-13T07:22:57.099Z,93.64
2019-03-13T07:26:18.799Z,93.84
2019-03-13T07:29:59.997Z,93.34
2019-03-13T07:33:25.688Z,94.02
2019-03-13T07:36:47.408Z,93.00
2019-03-13T07:40:10.314Z,93.22
2019-03-13T07:43:36.051Z,92.21
2019-03-13T07:47:17.140Z,92.56
2019-03-13T07:50:36.629Z,91.86
2019-03-13T07:53:50.152Z,91.86
2019-03-13T07:57:27.844Z,92.20
2019-03-13T08:00:40.769Z,92.41
2019-03-13T08:04:05.322Z,92.92
2019-03-13T08:07:17.564Z,92.55
2019-03-13T08:10:39.073Z,92.97
2019-03-13T08:14:11.009Z,93.15
2019-03-13T08:17:26.032Z,93.20
2019-03-13T08:20:48.168Z,92.85
2019-03-13T08:24:08.989Z,92.96
2019-03-13T08:27:30.899Z,92.96
2019-03-13T08:30:52.554Z,93.15
2019-03-13T08:34:27.385Z,93.79
2019-03-13T08:37:37.646Z,93.04
2019-03-13T08:40:47.678Z,92.77
2019-03-13T08:44:19.640Z,92.72
2019-03-13T08:47:37.161Z,92.80
2019-03-13T08:50:58.713Z,92.86
2019-03-13T08:54:13.060Z,92.75
2019-03-13T08:57:31.833Z,92.53
2019-03-13T09:00:45.048Z,92.07
2019-03-13T09:04:16.966Z,92.42
2019-03-13T09:07:29.973Z,92.12
2019-03-13T09:11:01.694Z,91.89
2019-03-13T09:14:16.264Z,91.75
2019-03-13T09:17:36.962Z,91.38
2019-03-13T09:20:55.551Z,91.33
2019-03-13T09:24:23.293Z,91.80
2019-03-13T09:27:37.260Z,91.33
2019-03-13T09:30:54.256Z,91.03
2019-03-13T09:34:29.017Z,91.56
2019-03-13T09:37:47.139Z,91.05
2019-03-13T09:41:14.295Z,92.34
2019-03-13T09:44:35.615Z,92.62
2019-03-13T09:47:46.788Z,92.43
2019-03-13T09:50:59.928Z,92.37
2019-03-13T09:54:22.764Z,93.11
2019-03-13T09:57:44.436Z,92.87
2019-03-13T10:00:54.889Z,92.83
2019-03-13T10:04:07.463Z,92.83
2019-03-13T10:07:36.750Z,92.04
2019-03-13T10:10:50.323Z,92.26
2019-03-13T10:14:00.775Z,92.46
2019-03-13T10:17:19.966Z,92.01
2019-03-13T10:20:50.814Z,92.95
2019-03-13T10:24:25.212Z,93.42
2019-03-13T10:27:35.880Z,93.24
2019-03-13T10:30:50.450Z,93.20
2019-03-13T10:34:10.861Z,93.61
2019-03-13T10:37:36.071Z,94.05
2019-03-13T10:41:01.374Z,93.55
2019-03-13T10:44:30.706Z,93.08
2019-03-13T10:47:44.312Z,92.90
2019-03-13T10:51:05.975Z,92.08
2019-03-13T10:54:37.001Z,91.84
2019-03-13T10:57:58.796Z,92.04
2019-03-13T11:01:20.493Z,92.64
2019-03-13T11:04:49.262Z,92.66
2019-03-13T11:08:06.694Z,93.36
2019-03-13T11:11:35.467Z,92.64
2019-03-13T11:15:00.973Z,93.11
2019-03-13T11:18:13.394Z,93.35
2019-03-13T11:21:22.100Z,92.99
2019-03-13T11:24:39.435Z,94.11
2019-03-13T11:27:51.660Z,93.12
2019-03-13T11:31:07.215Z,94.15
2019-03-13T11:34:33.040Z,93.29
2019-03-13T11:37:49.232Z,93.10
2019-03-13T11:41:05.991Z,92.44
2019-03-13T11:44:34.711Z,93.05
2019-03-13T11:47:56.431Z,92.55
2019-03-13T11:51:25.380Z,92.67
2019-03-13T11:54:41.461Z,91.61
2019-03-13T11:57:55.530Z,92.90
2019-03-13T12:01:17.682Z,93.89
2019-03-13T12:04:35.466Z,94.27
2019-03-13T12:07:48.309Z,94.99
2019-03-13T12:11:05.863Z,94.84
2019-03-13T12:14:31.708Z,94.93
2019-03-13T12:17:54.679Z,94.97
2019-03-13T12:21:11.115Z,94.33
2019-03-13T12:24:31.937Z,94.69
2019-03-13T12:27:48.337Z,94.63
2019-03-13T12:31:13.877Z,94.61
2019-03-13T12:34:28.640Z,94.29
2019-03-13T12:37:50.311Z,93.62
2019-03-13T12:41:22.492Z,92.86
2019-03-13T12:44:44.115Z,92.51
2019-03-13T12:51:35.429Z,92.57
2019-03-13T12:54:49.120Z,93.17
2019-03-13T12:58:09.334Z,93.00
2019-03-13T13:01:21.938Z,93.72
2019-03-13T13:04:35.910Z,93.31
2019-03-13T13:07:48.617Z,92.26
2019-03-13T13:11:09.291Z,92.25
2019-03-13T13:14:31.468Z,91.80
2019-03-13T13:17:57.636Z,93.06
2019-03-13T13:21:01.511Z,92.62
2019-03-13T13:24:05.693Z,90.80
2019-03-13T13:27:09.649Z,90.73
2019-03-13T13:30:14.804Z,91.23
2019-03-13T13:33:18.643Z,91.74
2019-03-13T13:36:22.524Z,91.90
2019-03-13T13:39:26.421Z,91.46
2019-03-13T13:42:30.200Z,91.92
2019-03-13T13:45:45.857Z,92.09
2019-03-13T13:48:49.721Z,92.55
2019-03-13T13:51:53.604Z,92.78
2019-03-13T13:54:57.424Z,92.11
2019-03-13T13:58:01.240Z,93.04
2019-03-13T14:01:05.186Z,92.74
2019-03-13T14:04:09.006Z,91.38
2019-03-13T14:07:12.809Z,90.92
2019-03-13T14:10:16.764Z,90.90
2019-03-13T14:13:20.582Z,90.33
2019-03-13T14:16:24.387Z,90.33
2019-03-13T14:19:28.263Z,90.03
2019-03-13T14:22:32.085Z,88.92
2019-03-13T14:25:35.949Z,90.56
2019-03-13T14:28:39.818Z,90.27
2019-03-13T14:31:43.633Z,90.30
2019-03-13T14:34:47.456Z,89.86
2019-03-13T14:37:51.400Z,89.20
2019-03-13T14:40:55.375Z,89.36
2019-03-13T14:43:59.392Z,89.69
2019-03-13T14:47:03.201Z,89.56
2019-03-13T14:50:08.481Z,90.03
2019-03-13T14:53:12.407Z,89.59
2019-03-13T14:56:16.338Z,89.93
2019-03-13T14:59:20.241Z,90.17
2019-03-13T15:02:24.013Z,90.43
2019-03-13T15:05:27.907Z,89.58
2019-03-13T15:08:31.694Z,90.48
2019-03-13T15:11:35.497Z,90.12
2019-03-13T15:14:39.270Z,88.81
2019-03-13T15:17:43.153Z,88.44
2019-03-13T15:20:47.121Z,88.18
2019-03-13T15:23:50.904Z,87.48
2019-03-13T15:26:54.737Z,88.23
2019-03-13T15:29:58.546Z,89.37
2019-03-13T15:33:02.446Z,89.99
2019-03-13T15:36:06.285Z,88.78
2019-03-13T15:39:10.232Z,90.18
2019-03-13T15:42:14.059Z,89.81
2019-03-13T15:45:19.062Z,89.30
2019-03-13T15:48:22.849Z,88.29
2019-03-13T15:51:26.637Z,87.61
2019-03-13T15:54:30.503Z,88.39
2019-03-13T15:57:34.384Z,88.51
2019-03-13T16:00:38.265Z,88.23
2019-03-13T16:03:42.169Z,88.24
2019-03-13T16:06:45.948Z,88.73
2019-03-13T16:09:49.852Z,90.13
2019-03-13T16:12:55.576Z,90.45
2019-03-13T16:15:59.558Z,90.61
2019-03-13T16:19:03.384Z,90.84
2019-03-13T16:22:08.167Z,89.87
2019-03-13T16:25:12.685Z,90.86
2019-03-13T16:28:16.594Z,92.68
2019-03-13T16:31:20.404Z,92.62
2019-03-13T16:34:24.200Z,91.94
2019-03-13T16:37:28.010Z,93.02
2019-03-13T16:40:32.128Z,92.02
2019-03-13T16:43:35.970Z,93.02
2019-03-13T16:46:39.811Z,92.91
2019-03-13T16:49:43.664Z,93.37
2019-03-13T16:52:47.472Z,93.04
2019-03-13T16:55:51.351Z,93.02
2019-03-13T16:59:02.822Z,93.07
2019-03-13T17:02:06.891Z,93.42
2019-03-13T17:05:11.644Z,92.64
2019-03-13T17:08:15.450Z,92.92
2019-03-13T17:11:19.287Z,92.59
2019-03-13T17:14:23.168Z,93.44
2019-03-13T17:17:27.045Z,93.02
2019-03-13T17:20:30.898Z,92.35
2019-03-13T17:23:34.783Z,93.15
2019-03-13T17:26:38.594Z,92.87
2019-03-13T17:29:42.402Z,93.10
2019-03-13T17:32:46.305Z,93.97
2019-03-13T17:35:50.210Z,94.82
2019-03-13T17:38:54.057Z,94.66
2019-03-13T17:41:57.848Z,94.19
2019-03-13T17:45:01.733Z,94.11
2019-03-13T17:48:07.177Z,93.35
2019-03-13T17:51:10.983Z,93.64
2019-03-13T17:54:14.794Z,94.41
2019-03-13T17:57:18.682Z,94.45
2019-03-13T18:00:29.678Z,94.82
2019-03-13T18:03:33.473Z,94.08
2019-03-13T18:06:37.446Z,93.91
2019-03-13T18:09:41.241Z,93.86
2019-03-13T18:12:45.150Z,93.54
2019-03-13T18:15:49.064Z,93.60
2019-03-13T18:18:52.844Z,93.81
2019-03-13T18:21:56.690Z,92.92
2019-03-13T18:25:00.534Z,93.64
2019-03-13T18:28:04.563Z,93.42
2019-03-13T18:31:08.464Z,93.45
2019-03-13T18:34:12.276Z,93.92
2019-03-13T18:37:16.161Z,93.88
2019-03-13T18:40:20.134Z,93.57
2019-03-13T18:43:23.958Z,92.86
2019-03-13T18:46:27.747Z,93.62
2019-03-13T18:49:31.574Z,92.81
2019-03-13T18:52:35.376Z,92.89
2019-03-13T18:55:39.332Z,92.48
2019-03-13T18:58:43.302Z,92.78
2019-03-13T19:01:47.176Z,92.78
2019-03-13T19:04:51.070Z,92.82
2019-03-13T19:07:54.949Z,92.98
2019-03-13T19:10:58.794Z,92.65
2019-03-13T19:14:02.598Z,92.89
2019-03-13T19:17:06.563Z,92.44
2019-03-13T19:20:12.007Z,92.74
2019-03-13T19:23:16.088Z,92.97
2019-03-13T19:26:20.020Z,92.18
2019-03-13T19:29:23.799Z,92.66
2019-03-13T19:32:27.611Z,93.07
2019-03-13T19:35:31.568Z,92.63
2019-03-13T19:38:35.374Z,92.49
2019-03-13T19:41:39.252Z,92.72
2019-03-13T19:44:43.088Z,92.63
2019-03-13T19:47:47.037Z,92.68
2019-03-13T19:50:50.946Z,92.12
2019-03-13T19:53:54.725Z,92.25
2019-03-13T19:56:58.611Z,92.26
2019-03-13T20:00:02.414Z,92.59
2019-03-13T20:03:07.150Z,92.51
2019-03-13T20:06:11.064Z,92.03
2019-03-13T20:09:15.013Z,91.82
2019-03-13T20:12:18.802Z,92.19
2019-03-13T20:15:23.351Z,92.91
2019-03-13T20:18:27.342Z,92.22
2019-03-13T20:21:31.503Z,92.17
2019-03-13T20:24:35.313Z,91.61
2019-03-13T20:27:39.387Z,92.04
2019-03-13T20:30:43.360Z,91.65
2019-03-13T20:33:47.164Z,91.03
2019-03-13T20:36:51.087Z,91.55
2019-03-13T20:39:54.879Z,92.57
2019-03-13T20:43:02.023Z,91.90
2019-03-13T20:46:04.833Z,91.54
2019-03-13T20:49:08.717Z,91.82
2019-03-13T20:52:12.539Z,91.09
2019-03-13T20:55:16.677Z,90.94
2019-03-13T20:58:20.606Z,90.72
2019-03-13T21:01:24.472Z,90.73
2019-03-13T21:04:28.256Z,90.98
2019-03-13T21:07:32.062Z,90.91
2019-03-13T21:10:35.953Z,91.31
2019-03-13T21:13:39.745Z,91.26
2019-03-13T21:16:43.600Z,91.13
2019-03-13T21:19:47.413Z,90.89
2019-03-13T21:22:51.296Z,90.24
2019-03-13T21:25:55.167Z,89.94
2019-03-13T21:28:58.967Z,89.66
2019-03-13T21:32:02.802Z,89.34
2019-03-13T21:35:06.881Z,89.67
2019-03-13T21:38:13.083Z,89.28
2019-03-13T21:41:16.297Z,89.48
2019-03-13T21:44:20.104Z,89.04
2019-03-13T21:47:23.980Z,88.81
2019-03-13T21:50:27.962Z,88.89
2019-03-13T21:53:31.803Z,87.99
2019-03-13T21:56:35.632Z,87.62
2019-03-13T21:59:39.455Z,87.88
2019-03-13T22:02:43.289Z,87.40
2019-03-13T22:05:47.193Z,87.36
2019-03-13T22:08:50.989Z,88.31
2019-03-13T22:11:54.807Z,88.32
2019-03-13T22:14:58.681Z,88.62
2019-03-13T22:18:02.503Z,89.40
2019-03-13T22:21:06.290Z,88.85
2019-03-13T22:24:10.070Z,88.54
2019-03-13T22:27:14.935Z,87.57
2019-03-13T22:30:20.451Z,87.35
2019-03-13T22:33:24.260Z,86.26
2019-03-13T22:36:28.148Z,85.15
2019-03-13T22:39:31.933Z,83.77
2019-03-13T22:42:35.716Z,83.48
2019-03-13T22:45:39.548Z,83.22
2019-03-13T22:48:43.371Z,82.67
2019-03-13T22:51:47.233Z,82.91
2019-03-13T22:54:51.035Z,83.05
2019-03-13T22:57:54.873Z,82.66
2019-03-13T23:01:06.659Z,82.30
2019-03-13T23:04:10.648Z,82.61
2019-03-13T23:07:14.543Z,82.29
2019-03-13T23:10:30.232Z,82.87
2019-03-13T23:13:35.555Z,82.82
2019-03-13T23:16:39.422Z,82.97
2019-03-13T23:19:43.443Z,82.44
2019-03-13T23:22:47.222Z,81.65
2019-03-13T23:25:51.127Z,81.60
2019-03-13T23:28:55.060Z,81.72
2019-03-13T23:31:58.884Z,81.17
2019-03-13T23:35:04.363Z,81.57
2019-03-13T23:38:08.711Z,81.05
2019-03-13T23:41:12.668Z,81.12
2019-03-13T23:44:16.547Z,81.17
2019-03-13T23:47:20.357Z,81.27
2019-03-13T23:50:24.157Z,81.55
2019-03-13T23:53:27.956Z,82.19
2019-03-13T23:56:31.743Z,82.40
2019-03-13T23:59:35.577Z,82.49
